ADDS METAR Data INFO
IDs: Format: Raw Decoded Include TAF

Data at: 0242 UTC 17 Jan 2018

KIXA 170235Z AUTO 00000KT 10SM CLR M01/M05 A3034 RMK AO2
KIXA 170215Z AUTO 00000KT 10SM CLR M01/M05 A3034 RMK AO2
KIXA 170155Z AUTO 00000KT 10SM CLR M01/M05 A3035 RMK AO2
KIXA 170135Z AUTO 00000KT 10SM CLR M01/M05 A3035 RMK AO2
KIXA 170115Z AUTO 00000KT 10SM CLR M01/M05 A3034 RMK AO2
KIXA 170055Z AUTO 00000KT 10SM CLR 00/M05 A3035 RMK AO2
KIXA 170035Z AUTO 00000KT 10SM CLR 00/M05 A3035 RMK AO2
KIXA 170015Z AUTO 00000KT 10SM CLR 00/M05 A3035 RMK AO2
KIXA 162355Z AUTO 00000KT 10SM CLR 00/M05 A3035 RMK AO2
KIXA 162335Z AUTO 00000KT 10SM CLR 01/M05 A3036 RMK AO2
KIXA 162315Z AUTO 00000KT 10SM CLR 02/M05 A3036 RMK AO2
KIXA 162255Z AUTO 00000KT 10SM CLR 02/M05 A3035 RMK AO2
KIXA 162235Z AUTO 00000KT 10SM CLR 02/M05 A3035 RMK AO2
KIXA 162215Z AUTO 00000KT 10SM CLR 05/M06 A3035 RMK AO2
KIXA 162155Z AUTO 00000KT 10SM CLR 05/M06 A3035 RMK AO2
KIXA 162135Z AUTO 00000KT 10SM CLR 06/M06 A3035 RMK AO2
KIXA 162115Z AUTO 00000KT 10SM CLR 07/M06 A3035 RMK AO2
KIXA 162055Z AUTO 00000KT 10SM CLR 07/M06 A3035 RMK AO2
KIXA 162035Z AUTO 00000KT 10SM CLR 07/M06 A3035 RMK AO2
KIXA 162015Z AUTO 00000KT 10SM CLR 07/M06 A3036 RMK AO2
KIXA 161955Z AUTO 00000KT 10SM SCT002 07/M06 A3036 RMK AO2
KIXA 161935Z AUTO 00000KT 10SM CLR 07/M07 A3037 RMK AO2
KIXA 161915Z AUTO 00000KT 10SM CLR 07/M06 A3037 RMK AO2
KIXA 161855Z AUTO 30004KT 10SM CLR 07/M07 A3038 RMK AO2
KIXA 161815Z AUTO 00000KT 10SM CLR 06/M07 A3040 RMK AO2
KIXA 161755Z AUTO 00000KT 10SM CLR 06/M08 A3040 RMK AO2
KIXA 161735Z AUTO 35003KT 10SM CLR 05/M07 A3042 RMK AO2
KIXA 161715Z AUTO 00000KT 10SM CLR 05/M05 A3044 RMK AO2
KIXA 161655Z AUTO 00000KT 10SM SCT002 05/M03 A3046 RMK AO2
KIXA 161635Z AUTO 00000KT 10SM CLR 03/M03 A3047 RMK AO2
KIXA 161615Z AUTO 00000KT 10SM CLR 03/M03 A3047 RMK AO2
KIXA 161555Z AUTO 00000KT 10SM CLR 02/M03 A3048 RMK AO2
KIXA 161535Z AUTO 00000KT 10SM CLR 01/M02 A3049 RMK AO2
KIXA 161515Z AUTO 00000KT 10SM CLR 00/M03 A3049 RMK AO2
KIXA 161455Z AUTO 00000KT 10SM CLR 00/M03 A3049 RMK AO2
KIXA 161435Z AUTO 00000KT 10SM CLR M01/M03 A3048 RMK AO2
KIXA 161415Z AUTO 00000KT 10SM CLR M02/M03 A3048 RMK AO2
KIXA 161355Z AUTO 00000KT 10SM CLR M03/M04 A3049 RMK AO2
KIXA 161335Z AUTO 00000KT 7SM CLR M04/M05 A3048 RMK AO2
KIXA 161315Z AUTO 00000KT 10SM CLR M05/M05 A3047 RMK AO2
KIXA 161255Z AUTO 00000KT 10SM CLR M06/M06 A3047 RMK AO2
KIXA 161235Z AUTO 00000KT 10SM CLR M06/M06 A3047 RMK AO2
KIXA 161215Z AUTO 00000KT 10SM CLR M06/M06 A3047 RMK AO2
KIXA 161155Z AUTO 00000KT 10SM CLR M06/M07 A3047 RMK AO2
KIXA 161135Z AUTO 00000KT 10SM CLR M06/M06 A3048 RMK AO2
KIXA 161115Z AUTO 00000KT 10SM CLR M06/M06 A3048 RMK AO2
KIXA 161055Z AUTO 00000KT 10SM CLR M05/M06 A3048 RMK AO2
KIXA 161035Z AUTO 00000KT 10SM CLR M05/M06 A3047 RMK AO2
KIXA 161015Z AUTO 00000KT 10SM CLR M06/M06 A3047 RMK AO2
KIXA 160955Z AUTO 00000KT 10SM CLR M06/M06 A3046 RMK AO2
KIXA 160935Z AUTO 00000KT 10SM CLR M05/M06 A3046 RMK AO2
KIXA 160915Z AUTO 00000KT 10SM CLR M05/M05 A3046 RMK AO2
KIXA 160855Z AUTO 00000KT 10SM CLR M05/M05 A3045 RMK AO2
KIXA 160835Z AUTO 00000KT 10SM CLR M05/M05 A3045 RMK AO2
KIXA 160815Z AUTO 00000KT 10SM CLR M05/M06 A3045 RMK AO2
KIXA 160755Z AUTO 00000KT 10SM CLR M05/M06 A3045 RMK AO2
KIXA 160735Z AUTO 00000KT 10SM CLR M05/M05 A3045 RMK AO2
KIXA 160715Z AUTO 00000KT 10SM CLR M05/M05 A3044 RMK AO2
KIXA 160655Z AUTO 00000KT 10SM CLR M04/M05 A3044 RMK AO2
KIXA 160635Z AUTO 00000KT 10SM CLR M04/M05 A3044 RMK AO2
KIXA 160615Z AUTO 00000KT 10SM CLR M04/M05 A3045 RMK AO2
KIXA 160555Z AUTO 00000KT 10SM CLR M04/M05 A3045 RMK AO2
KIXA 160535Z AUTO 00000KT 10SM CLR M05/M05 A3045 RMK AO2
KIXA 160515Z AUTO 00000KT 10SM CLR M04/M05 A3045 RMK AO2
KIXA 160455Z AUTO 00000KT 10SM CLR M04/M05 A3046 RMK AO2
KIXA 160435Z AUTO 00000KT 10SM CLR M05/M05 A3046 RMK AO2
KIXA 160415Z AUTO 00000KT 10SM CLR M04/M05 A3047 RMK AO2
KIXA 160355Z AUTO 00000KT 10SM CLR M03/M05 A3048 RMK AO2
KIXA 160335Z AUTO 00000KT 10SM CLR M03/M05 A3048 RMK AO2
KIXA 160315Z AUTO 00000KT 10SM CLR M03/M05 A3048 RMK AO2
KIXA 160255Z AUTO 00000KT 10SM CLR M03/M05 A3048 RMK AO2
KIXA 160235Z AUTO 00000KT 10SM CLR M02/M05 A3048 RMK AO2
KIXA 160215Z AUTO 00000KT 10SM CLR M01/M05 A3048 RMK AO2
KIXA 160155Z AUTO 00000KT 10SM CLR M02/M05 A3048 RMK AO2
KIXA 160135Z AUTO 00000KT 10SM CLR M02/M05 A3047 RMK AO2
KIXA 160115Z AUTO 00000KT 10SM CLR M02/M05 A3047 RMK AO2
KIXA 160055Z AUTO 00000KT 10SM CLR M02/M05 A3047 RMK AO2
KIXA 160035Z AUTO 00000KT 10SM CLR M02/M05 A3047 RMK AO2
KIXA 160015Z AUTO 00000KT 10SM CLR M01/M05 A3047 RMK AO2
KIXA 152355Z AUTO 00000KT 10SM CLR M01/M05 A3047 RMK AO2
KIXA 152335Z AUTO 00000KT 10SM CLR M01/M05 A3046 RMK AO2
KIXA 152315Z AUTO 00000KT 10SM CLR 00/M05 A3047 RMK AO2
KIXA 152255Z AUTO 00000KT 10SM CLR 00/M05 A3045 RMK AO2
KIXA 152235Z AUTO 00000KT 10SM CLR 01/M05 A3045 RMK AO2
KIXA 152215Z AUTO 00000KT 10SM CLR 02/M05 A3044 RMK AO2
KIXA 152155Z AUTO 01003KT 10SM CLR 03/M05 A3044 RMK AO2
KIXA 152135Z AUTO 36006KT 10SM CLR 03/M05 A3045 RMK AO2
KIXA 152115Z AUTO 36006KT 10SM CLR 03/M04 A3045 RMK AO2
KIXA 152055Z AUTO 34004KT 10SM CLR 04/M05 A3045 RMK AO2
KIXA 152035Z AUTO 36005KT 10SM CLR 04/M05 A3044 RMK AO2
KIXA 152015Z AUTO 36006KT 10SM CLR 03/M05 A3043 RMK AO2
KIXA 151955Z AUTO 35005KT 10SM CLR 03/M05 A3043 RMK AO2
KIXA 151935Z AUTO 01003KT 10SM CLR 03/M06 A3043 RMK AO2
KIXA 151915Z AUTO 02005KT 10SM CLR 03/M06 A3043 RMK AO2
KIXA 151855Z AUTO 35005KT 10SM CLR 03/M06 A3043 RMK AO2
KIXA 151835Z AUTO 00000KT 10SM CLR 02/M06 A3045 RMK AO2
KIXA 151815Z AUTO 00000KT 10SM CLR 02/M07 A3046 RMK AO2
KIXA 151755Z AUTO 35008KT 10SM CLR 02/M07 A3048 RMK AO2
KIXA 151735Z AUTO 00000KT 10SM CLR 01/M07 A3048 RMK AO2
KIXA 151715Z AUTO 36006KT 10SM CLR 01/M07 A3050 RMK AO2
KIXA 151655Z AUTO 35007KT 10SM CLR 00/M08 A3051 RMK AO2
KIXA 151635Z AUTO 36005KT 10SM CLR 00/M08 A3052 RMK AO2
KIXA 151615Z AUTO 35006KT 10SM CLR 00/M08 A3052 RMK AO2
KIXA 151555Z AUTO 01007KT 10SM CLR M01/M09 A3053 RMK AO2
KIXA 151535Z AUTO 00000KT 10SM CLR M01/M09 A3055 RMK AO2
KIXA 151515Z AUTO 36005KT 10SM SCT030 SCT038 M02/M10 A3055 RMK AO2
KIXA 151455Z AUTO 35003KT 10SM SCT030 SCT038 M02/M10 A3056 RMK AO2